Wheatley, United Kingdom
Current Conditions -  °F | °C
As of 12:50 PM on Tuesday 21 Oct 2014 (Local Time) from EGUB Reporting Station
Few Clouds Few Clouds  
Wind Chill: 13°   Ceiling: Unl
Heat Index: 13°   Visibility: 6mi
Dew Point:   Wind: 18mph
Humidity: 54%   Direction: 250°WSW
Pressure: 29.71"   Gusts: 30mph
Location:  51.75°N, 1.14°W
Report Text: EGUB 211150Z 25016G26KT 9999 FEW040 13/04 Q1006 BLU NOSIG
Loading
Personal Weather Stations






























Interactive Weather Map
Tropical Storm Tracking
New forecast layout! Learn more

10-Day Weather Forecast

Advertisements
Track Severe Weather on mobile